CheckWX is a tool to help pilots better visualize weather data.  It is not intended as a substitute for an official pre-flight weather briefing.

03:53:03 UTC

KOCF METAR
Ocala International-Jim Taylor Field Airport
Ocala, Florida, USA
Current

1 hour ago

KOCF 270251Z AUTO 14004KT 10SM CLR 29/20 A3010 RMK AO2 SLP193 T02890200 51014 $
Observed
May-27 @ 02:51 UTC
Wind
  • 140° at 4 KTS
Visibility
10 SM
Flight Rules
VFR
Cloud Levels
  • Clear skies
Temperature
29°C / 84°F
Dewpoint
20°C / 68°F
Heat Index
31°C / 87°F
Humidity
58%
Altimeter
30.1" Hg
Pressure
1019.32 hPa
Previous

2 hours ago

KOCF 270151Z AUTO 00000KT 10SM CLR 31/20 A3009 RMK AO2 SLP190 T03060200 $
Observed
May-27 @ 01:51 UTC
Visibility
10 SM
Flight Rules
VFR
Cloud Levels
  • Clear skies
Temperature
31°C / 88°F
Dewpoint
20°C / 68°F
Heat Index
33°C / 92°F
Humidity
52%
Altimeter
30.09" Hg
Pressure
1018.92 hPa
Previous

3 hours ago

KOCF 270051Z AUTO 16003KT 10SM BKN075 31/19 A3007 RMK AO2 SLP182 T03110189 $
Observed
May-27 @ 00:51 UTC
Wind
  • 160° at 3 KTS
Visibility
10 SM
Flight Rules
VFR
Cloud Levels
  • Broken at 7,500' AGL
Temperature
31°C / 88°F
Dewpoint
19°C / 66°F
Heat Index
33°C / 91°F
Humidity
49%
Altimeter
30.07" Hg
Pressure
1018.32 hPa